Weather at H Chambers Cadillac Heliport [CLOSED]

Public forecast

Using degrees Fahrenheit for public forecast. Weather courtesy of forecast.io.

Closest aviation weather report (METAR) to H Chambers Cadillac Heliport

Closest report is Theodore Francis Green State Airport, 4.1 nm (7.5 km) S. Retrieved 2022/08/12 02:51 UTC (26 minutes ago):

KPVD 120251Z 20009KT 10SM OVC008 21/20 A2991 RMK AO2 SLP126 T02110200 50011

Closest aviation forecast (TAF) to H Chambers Cadillac Heliport

Closest forecast is Theodore Francis Green State Airport, 4.1 nm (7.5 km) S. Retrieved 2022-08-12 00:42 UTC (3 hours ago):

TAF KPVD 112340Z 1200/1224 17005KT P6SM SCT012 BKN090 FM120300 19004KT P6SM BKN012 FM120400 VRB03KT P6SM SCT012 FM120800 33004KT P6SM SCT050 FM121100 36007KT P6SM BKN100 FM121800 03006KT P6SM BKN100